createdAt,value
2022-10-04T00:03:09.818Z,8.38
2022-10-04T00:05:38.609Z,8.93
2022-10-04T00:08:23.235Z,9.13
2022-10-04T00:10:50.328Z,9.27
2022-10-04T00:13:25.505Z,8.90
2022-10-04T00:15:52.318Z,9.63
2022-10-04T00:18:28.188Z,9.10
2022-10-04T00:20:54.559Z,9.32
2022-10-04T00:23:39.793Z,10.00
2022-10-04T00:26:35.359Z,9.93
2022-10-04T00:29:35.560Z,9.38
2022-10-04T00:32:07.953Z,9.60
2022-10-04T00:34:49.207Z,9.88
2022-10-04T00:37:18.908Z,10.15
2022-10-04T00:40:01.182Z,10.40
2022-10-04T00:42:42.766Z,8.90
2022-10-04T00:45:18.721Z,8.97
2022-10-04T00:47:47.998Z,9.25
2022-10-04T00:50:34.613Z,9.48
2022-10-04T00:53:02.798Z,9.48
2022-10-04T00:55:37.736Z,10.75
2022-10-04T00:58:13.356Z,10.10
2022-10-04T01:00:41.696Z,9.35
2022-10-04T01:03:14.386Z,11.52
2022-10-04T01:05:53.189Z,10.68
2022-10-04T01:08:28.536Z,10.43
2022-10-04T01:11:20.734Z,9.63
2022-10-04T01:13:51.983Z,9.70
2022-10-04T01:16:22.084Z,9.73
2022-10-04T01:18:48.779Z,10.63
2022-10-04T01:21:21.068Z,10.70
2022-10-04T01:23:53.512Z,10.10
2022-10-04T01:26:29.455Z,11.20
2022-10-04T01:29:01.181Z,9.65
2022-10-04T01:31:29.363Z,10.82
2022-10-04T01:33:56.742Z,10.50
2022-10-04T01:36:23.812Z,10.63
2022-10-04T01:38:51.251Z,10.77
2022-10-04T01:41:25.255Z,9.73
2022-10-04T01:43:58.113Z,9.85
2022-10-04T01:46:32.117Z,9.18
2022-10-04T01:49:03.482Z,10.10
2022-10-04T01:51:56.482Z,10.65
2022-10-04T01:54:33.133Z,11.82
2022-10-04T01:57:07.199Z,11.60
2022-10-04T01:59:44.537Z,10.55
2022-10-04T02:02:22.575Z,11.17
2022-10-04T02:04:56.463Z,12.18
2022-10-04T02:07:26.393Z,11.10
2022-10-04T02:09:59.499Z,10.40
2022-10-04T02:12:28.521Z,10.90
2022-10-04T02:14:56.065Z,11.33
2022-10-04T02:17:28.246Z,10.25
2022-10-04T02:19:54.983Z,10.63
2022-10-04T02:22:24.669Z,10.70
2022-10-04T02:24:54.831Z,11.70
2022-10-04T02:27:26.864Z,12.03
2022-10-04T02:29:59.663Z,11.23
2022-10-04T02:32:45.163Z,11.70
2022-10-04T02:35:12.943Z,11.05
2022-10-04T02:37:40.057Z,11.00
2022-10-04T02:40:14.124Z,10.30
2022-10-04T02:43:11.457Z,10.57
2022-10-04T02:45:50.693Z,11.32
2022-10-04T02:48:35.870Z,10.50
2022-10-04T02:51:18.715Z,11.23
2022-10-04T02:53:52.641Z,11.10
2022-10-04T02:56:20.815Z,11.55
2022-10-04T02:58:47.337Z,11.13
2022-10-04T03:01:43.694Z,10.52
2022-10-04T03:04:15.069Z,11.38
2022-10-04T03:06:45.737Z,11.47
2022-10-04T03:09:13.973Z,12.52
2022-10-04T03:11:42.336Z,12.32
2022-10-04T03:14:16.067Z,10.90
2022-10-04T03:16:45.315Z,10.32
2022-10-04T03:19:15.667Z,11.37
2022-10-04T03:21:44.904Z,10.90
2022-10-04T03:24:18.128Z,10.93
2022-10-04T03:26:52.353Z,12.05
2022-10-04T03:29:22.026Z,11.60
2022-10-04T03:31:51.417Z,11.70
2022-10-04T03:34:24.776Z,11.30
2022-10-04T03:36:58.636Z,12.15
2022-10-04T03:39:33.595Z,11.18
2022-10-04T03:42:07.061Z,11.55
2022-10-04T03:44:34.882Z,11.17
2022-10-04T03:47:02.106Z,11.05
2022-10-04T03:49:35.596Z,11.18
2022-10-04T03:52:03.586Z,11.20
2022-10-04T03:54:31.739Z,11.13
2022-10-04T03:57:00.433Z,11.47
2022-10-04T03:59:28.799Z,12.00
2022-10-04T04:02:06.731Z,11.93
2022-10-04T04:05:14.998Z,11.50
2022-10-04T04:07:46.749Z,12.13
2022-10-04T04:10:25.928Z,11.70
2022-10-04T04:13:11.116Z,11.85
2022-10-04T04:15:45.456Z,11.60
2022-10-04T04:18:24.006Z,13.57
2022-10-04T04:20:54.575Z,12.65
2022-10-04T04:23:28.354Z,12.43
2022-10-04T04:25:57.163Z,12.70
2022-10-04T04:28:39.943Z,12.40
2022-10-04T04:31:21.600Z,12.65
2022-10-04T04:34:00.662Z,12.98
2022-10-04T04:36:30.150Z,12.83
2022-10-04T04:39:34.515Z,13.40
2022-10-04T04:42:15.264Z,12.63
2022-10-04T04:44:47.766Z,11.95
2022-10-04T04:47:40.099Z,12.65
2022-10-04T04:50:21.729Z,12.20
2022-10-04T04:53:04.624Z,11.70
2022-10-04T04:56:02.773Z,13.73
2022-10-04T04:58:35.268Z,12.40
2022-10-04T05:01:18.515Z,12.82
2022-10-04T05:03:45.034Z,12.00
2022-10-04T05:06:25.864Z,12.82
2022-10-04T05:08:52.281Z,12.55
2022-10-04T05:11:22.721Z,11.93
2022-10-04T05:14:05.955Z,13.00
2022-10-04T05:16:55.277Z,12.27
2022-10-04T05:19:31.077Z,12.23
2022-10-04T05:22:06.964Z,12.82
2022-10-04T05:24:37.491Z,11.10
2022-10-04T05:27:07.629Z,13.23
2022-10-04T05:29:38.053Z,12.20
2022-10-04T05:32:26.251Z,11.73
2022-10-04T05:34:54.479Z,12.00
2022-10-04T05:37:45.731Z,11.55
2022-10-04T05:40:15.194Z,11.73
2022-10-04T05:42:49.484Z,11.20
2022-10-04T05:45:24.598Z,11.98
2022-10-04T05:47:56.076Z,11.73
2022-10-04T05:50:42.408Z,11.70
2022-10-04T05:53:14.117Z,11.35
2022-10-04T05:55:53.011Z,12.07
2022-10-04T05:58:34.214Z,12.77
2022-10-04T06:01:27.174Z,11.82
2022-10-04T06:04:18.314Z,12.18
2022-10-04T06:06:50.459Z,12.32
2022-10-04T06:09:27.522Z,12.07
2022-10-04T06:12:30.196Z,12.40
2022-10-04T06:15:17.407Z,12.38
2022-10-04T06:18:28.479Z,12.30
2022-10-04T06:21:35.525Z,11.50
2022-10-04T06:24:27.129Z,12.90
2022-10-04T06:27:00.470Z,11.77
2022-10-04T06:29:33.837Z,12.57
2022-10-04T06:32:14.581Z,11.88
2022-10-04T06:35:05.110Z,12.93
2022-10-04T06:37:46.918Z,11.93
2022-10-04T06:40:38.627Z,12.05
2022-10-04T06:43:43.490Z,12.73
2022-10-04T06:46:12.779Z,13.27
2022-10-04T06:49:00.405Z,14.10
2022-10-04T06:51:42.860Z,12.00
2022-10-04T06:54:32.302Z,12.68
2022-10-04T06:57:23.391Z,12.75
2022-10-04T07:00:09.777Z,12.05
2022-10-04T07:02:53.273Z,13.63
2022-10-04T07:05:33.585Z,13.40
2022-10-04T07:08:59.593Z,13.75
2022-10-04T07:11:32.740Z,12.10
2022-10-04T07:14:30.992Z,12.00
2022-10-04T07:17:19.446Z,13.32
2022-10-04T07:19:49.107Z,13.30
2022-10-04T07:22:42.327Z,12.40
2022-10-04T07:25:28.942Z,12.98
2022-10-04T07:28:20.498Z,12.27
2022-10-04T07:31:09.560Z,12.95
2022-10-04T07:33:48.259Z,12.00
2022-10-04T07:36:22.822Z,12.05
2022-10-04T07:38:55.211Z,12.15
2022-10-04T07:41:47.987Z,12.45
2022-10-04T07:44:39.465Z,10.43
2022-10-04T07:47:14.642Z,10.00
2022-10-04T07:49:41.451Z,10.82
2022-10-04T07:52:28.893Z,11.38
2022-10-04T07:55:02.135Z,10.57
2022-10-04T07:58:18.745Z,11.48
2022-10-04T08:01:01.736Z,11.33
2022-10-04T08:03:37.028Z,10.38
2022-10-04T08:06:16.551Z,10.95
2022-10-04T08:09:09.415Z,10.38
2022-10-04T08:11:57.814Z,9.70
2022-10-04T08:14:52.445Z,9.03
2022-10-04T08:17:18.867Z,9.20
2022-10-04T08:20:08.233Z,9.32
2022-10-04T08:22:56.206Z,10.10
2022-10-04T08:25:42.813Z,10.63
2022-10-04T08:28:37.156Z,10.80
2022-10-04T08:31:15.483Z,11.48
2022-10-04T08:33:58.540Z,11.65
2022-10-04T08:36:43.169Z,10.88
2022-10-04T08:39:55.071Z,9.60
2022-10-04T08:42:34.352Z,9.20
2022-10-04T08:45:20.167Z,10.45
2022-10-04T08:48:08.241Z,9.98
2022-10-04T08:50:59.137Z,9.45
2022-10-04T08:53:31.477Z,10.10
2022-10-04T08:56:27.231Z,9.47
2022-10-04T08:59:18.240Z,8.45
2022-10-04T09:02:06.862Z,9.20
2022-10-04T09:04:42.105Z,9.00
2022-10-04T09:07:38.570Z,9.70
2022-10-04T09:10:35.399Z,9.10
2022-10-04T09:13:36.449Z,9.52
2022-10-04T09:16:14.962Z,9.65
2022-10-04T09:18:48.740Z,9.82
2022-10-04T09:21:33.918Z,9.00
2022-10-04T09:24:38.007Z,10.10
2022-10-04T09:27:04.421Z,9.52
2022-10-04T09:29:36.494Z,9.65
2022-10-04T09:32:21.528Z,9.60
2022-10-04T09:35:18.637Z,10.25
2022-10-04T09:37:59.045Z,8.90
2022-10-04T09:40:28.744Z,9.77
2022-10-04T09:43:21.523Z,9.80
2022-10-04T09:45:50.600Z,9.32
2022-10-04T09:48:29.790Z,9.65
2022-10-04T09:51:14.202Z,10.13
2022-10-04T09:53:56.238Z,8.57
2022-10-04T09:56:42.236Z,8.77
2022-10-04T09:59:24.495Z,9.25
2022-10-04T10:02:30.034Z,7.60
2022-10-04T10:05:19.657Z,9.47
2022-10-04T10:08:14.248Z,8.43
2022-10-04T10:11:17.908Z,9.07
2022-10-04T10:14:06.070Z,9.88
2022-10-04T10:16:53.315Z,9.15
2022-10-04T10:19:57.067Z,10.37
2022-10-04T10:22:33.170Z,8.80
2022-10-04T10:25:18.754Z,9.48
2022-10-04T10:27:47.922Z,9.10
2022-10-04T10:30:25.116Z,8.95
2022-10-04T10:33:32.158Z,9.90
2022-10-04T10:36:29.597Z,9.00
2022-10-04T10:39:34.367Z,9.00
2022-10-04T10:42:34.259Z,7.68
2022-10-04T10:45:58.877Z,7.28
2022-10-04T10:48:45.307Z,8.20
2022-10-04T10:51:35.921Z,7.13
2022-10-04T10:54:45.189Z,8.18
2022-10-04T10:57:52.369Z,7.05
2022-10-04T11:00:30.888Z,7.68
2022-10-04T11:03:34.651Z,7.37
2022-10-04T11:06:32.187Z,7.63
2022-10-04T11:09:29.456Z,7.97
2022-10-04T11:12:17.047Z,6.78
2022-10-04T11:15:07.937Z,7.07
2022-10-04T11:17:34.290Z,6.97
2022-10-04T11:20:24.846Z,6.60
2022-10-04T11:23:25.766Z,6.45
2022-10-04T11:26:39.347Z,6.35
2022-10-04T11:29:30.779Z,6.72
2022-10-04T11:32:19.276Z,6.37
2022-10-04T11:35:22.939Z,7.20
2022-10-04T11:38:18.709Z,7.43
2022-10-04T11:41:11.251Z,6.80
2022-10-04T11:43:59.698Z,6.10
2022-10-04T11:46:27.162Z,6.20
2022-10-04T11:49:35.676Z,5.95
2022-10-04T11:52:40.429Z,5.95
2022-10-04T11:55:31.203Z,5.65
2022-10-04T11:58:14.650Z,5.20
2022-10-04T12:01:30.340Z,5.67
2022-10-04T12:04:22.315Z,5.70
2022-10-04T12:07:22.654Z,5.10
2022-10-04T12:10:03.720Z,5.57
2022-10-04T12:12:59.008Z,5.80
2022-10-04T12:15:53.709Z,6.60
2022-10-04T12:19:00.973Z,6.40
2022-10-04T12:21:28.826Z,5.65
2022-10-04T12:24:14.656Z,6.18
2022-10-04T12:26:54.847Z,6.00
2022-10-04T12:30:03.493Z,6.47
2022-10-04T12:33:03.323Z,6.07
2022-10-04T12:35:57.474Z,5.13
2022-10-04T12:38:51.378Z,5.32
2022-10-04T12:42:02.903Z,5.53
2022-10-04T12:45:04.762Z,5.23
2022-10-04T12:47:44.627Z,5.00
2022-10-04T12:50:14.070Z,3.83
2022-10-04T12:53:06.064Z,4.53
2022-10-04T12:56:06.292Z,4.20
2022-10-04T12:58:43.199Z,3.80
2022-10-04T13:01:48.143Z,4.60
2022-10-04T13:04:26.296Z,5.50
2022-10-04T13:06:59.431Z,5.03
2022-10-04T13:09:59.854Z,5.05
2022-10-04T13:13:08.258Z,4.07
2022-10-04T13:18:49.351Z,4.72
2022-10-04T13:21:55.872Z,5.57
2022-10-04T13:25:01.566Z,4.80
2022-10-04T13:27:38.852Z,4.93
2022-10-04T13:30:29.599Z,4.88
2022-10-04T13:32:56.813Z,4.97
2022-10-04T13:35:25.985Z,5.63
2022-10-04T13:38:24.906Z,5.00
2022-10-04T13:41:18.932Z,4.83
2022-10-04T13:44:04.014Z,5.15
2022-10-04T13:47:04.691Z,3.72
2022-10-04T13:50:07.788Z,4.28
2022-10-04T13:53:34.019Z,4.00
2022-10-04T13:56:25.983Z,4.00
2022-10-04T13:59:06.073Z,4.30
2022-10-04T14:01:59.393Z,3.92
2022-10-04T14:04:43.920Z,4.50
2022-10-04T14:07:34.737Z,4.22
2022-10-04T14:10:11.912Z,3.63
2022-10-04T14:13:03.278Z,4.75
2022-10-04T14:15:51.074Z,4.00
2022-10-04T14:18:43.038Z,4.03
2022-10-04T14:21:24.477Z,3.63
2022-10-04T14:24:09.201Z,4.23
2022-10-04T14:26:48.414Z,4.32
2022-10-04T14:29:46.425Z,3.90
2022-10-04T14:33:04.460Z,4.38
2022-10-04T14:35:58.048Z,4.55
2022-10-04T14:38:44.128Z,4.67
2022-10-04T14:41:41.251Z,4.25
2022-10-04T14:44:24.973Z,4.53
2022-10-04T14:47:25.886Z,4.63
2022-10-04T14:50:05.122Z,5.05
2022-10-04T14:52:49.670Z,5.33
2022-10-04T14:55:54.874Z,4.68
2022-10-04T14:58:33.487Z,4.82
2022-10-04T15:01:15.664Z,4.57
2022-10-04T15:04:03.215Z,4.65
2022-10-04T15:06:37.773Z,4.40
2022-10-04T15:09:30.298Z,4.40
2022-10-04T15:12:27.278Z,4.90
2022-10-04T15:15:14.228Z,4.20
2022-10-04T15:17:54.101Z,5.35
2022-10-04T15:20:49.486Z,4.53
2022-10-04T15:23:29.237Z,3.90
2022-10-04T15:26:08.443Z,4.20
2022-10-04T15:28:44.180Z,4.45
2022-10-04T15:31:19.648Z,5.18
2022-10-04T15:34:23.653Z,4.50
2022-10-04T15:37:23.092Z,5.18
2022-10-04T15:40:22.076Z,4.25
2022-10-04T15:43:16.050Z,4.78
2022-10-04T15:46:09.517Z,4.25
2022-10-04T15:48:54.487Z,4.50
2022-10-04T15:51:20.903Z,5.13
2022-10-04T15:54:14.046Z,4.57
2022-10-04T15:56:40.439Z,5.30
2022-10-04T15:59:25.740Z,5.00
2022-10-04T16:02:20.940Z,4.73
2022-10-04T16:05:03.588Z,5.25
2022-10-04T16:07:40.314Z,5.82
2022-10-04T16:10:24.288Z,5.93
2022-10-04T16:13:24.495Z,5.72
2022-10-04T16:16:13.691Z,5.47
2022-10-04T16:18:54.793Z,5.07
2022-10-04T16:22:07.069Z,5.32
2022-10-04T16:24:52.305Z,5.45
2022-10-04T16:27:49.561Z,5.68
2022-10-04T16:30:30.176Z,4.83
2022-10-04T16:32:56.559Z,5.45
2022-10-04T16:35:31.719Z,5.97
2022-10-04T16:38:14.258Z,5.55
2022-10-04T16:40:53.060Z,5.75
2022-10-04T16:43:19.456Z,5.40
2022-10-04T16:46:09.383Z,5.93
2022-10-04T16:48:56.738Z,6.43
2022-10-04T16:51:39.124Z,6.25
2022-10-04T16:54:31.675Z,5.97
2022-10-04T16:56:58.060Z,6.77
2022-10-04T16:59:41.524Z,6.15
2022-10-04T17:02:26.650Z,5.70
2022-10-04T17:05:22.810Z,6.25
2022-10-04T17:08:17.224Z,5.95
2022-10-04T17:10:49.695Z,6.20
2022-10-04T17:13:31.358Z,6.75
2022-10-04T17:16:21.990Z,6.72
2022-10-04T17:18:48.383Z,6.20
2022-10-04T17:21:32.983Z,6.10
2022-10-04T17:24:20.772Z,6.50
2022-10-04T17:26:50.199Z,7.15
2022-10-04T17:29:23.257Z,6.88
2022-10-04T17:31:59.059Z,6.78
2022-10-04T17:34:40.543Z,6.18
2022-10-04T17:37:29.942Z,6.10
2022-10-04T17:40:17.827Z,6.32
2022-10-04T17:43:00.677Z,6.68
2022-10-04T17:45:32.950Z,5.65
2022-10-04T17:48:33.957Z,6.18
2022-10-04T17:51:30.245Z,5.13
2022-10-04T17:54:22.545Z,5.63
2022-10-04T17:57:21.936Z,5.90
2022-10-04T18:00:18.812Z,6.60
2022-10-04T18:02:59.821Z,6.20
2022-10-04T18:05:44.584Z,6.40
2022-10-04T18:08:29.321Z,6.47
2022-10-04T18:11:03.875Z,6.90
2022-10-04T18:13:54.924Z,6.97
2022-10-04T18:16:52.575Z,6.68
2022-10-04T18:19:51.415Z,7.33
2022-10-04T18:22:20.235Z,7.03
2022-10-04T18:24:49.046Z,6.47
2022-10-04T18:27:26.709Z,6.43
2022-10-04T18:30:02.790Z,6.95
2022-10-04T18:32:29.153Z,6.73
2022-10-04T18:35:21.735Z,6.13
2022-10-04T18:37:49.057Z,5.65
2022-10-04T18:40:31.914Z,5.90
2022-10-04T18:43:01.738Z,6.45
2022-10-04T18:45:33.725Z,6.13
2022-10-04T18:48:13.381Z,5.57
2022-10-04T18:50:47.030Z,6.40
2022-10-04T18:53:40.573Z,6.03
2022-10-04T18:56:12.463Z,6.03
2022-10-04T18:59:25.087Z,6.03
2022-10-04T19:02:15.831Z,6.72
2022-10-04T19:04:52.439Z,6.30
2022-10-04T19:07:31.432Z,6.53
2022-10-04T19:10:37.957Z,6.07
2022-10-04T19:13:07.202Z,6.10
2022-10-04T19:16:02.938Z,6.82
2022-10-04T19:18:50.900Z,7.35
2022-10-04T19:21:29.268Z,7.32
2022-10-04T19:24:20.627Z,5.88
2022-10-04T19:26:54.254Z,6.70
2022-10-04T19:29:58.812Z,6.40
2022-10-04T19:32:28.026Z,6.32
2022-10-04T19:35:24.501Z,6.60
2022-10-04T19:38:20.551Z,5.68
2022-10-04T19:41:12.826Z,5.97
2022-10-04T19:43:54.651Z,6.57
2022-10-04T19:46:56.026Z,5.90
2022-10-04T19:49:43.187Z,6.07
2022-10-04T19:52:23.047Z,6.15
2022-10-04T19:54:57.375Z,5.80
2022-10-04T19:57:36.258Z,5.85
2022-10-04T20:00:04.351Z,6.07
2022-10-04T20:02:31.336Z,5.80
2022-10-04T20:04:57.878Z,6.13
2022-10-04T20:07:27.374Z,5.90
2022-10-04T20:10:06.508Z,6.35
2022-10-04T20:12:41.409Z,7.80
2022-10-04T20:15:16.958Z,6.50
2022-10-04T20:17:45.349Z,6.38
2022-10-04T20:20:37.354Z,6.50
2022-10-04T20:23:04.648Z,6.78
2022-10-04T20:25:43.251Z,5.78
2022-10-04T20:28:11.042Z,5.88
2022-10-04T20:31:19.188Z,5.78
2022-10-04T20:33:47.592Z,5.87
2022-10-04T20:36:43.359Z,6.03
2022-10-04T20:39:41.942Z,6.57
2022-10-04T20:42:26.195Z,7.03
2022-10-04T20:44:55.683Z,6.07
2022-10-04T20:47:33.807Z,6.53
2022-10-04T20:50:01.882Z,6.28
2022-10-04T20:52:33.408Z,5.47
2022-10-04T20:55:01.704Z,5.35
2022-10-04T20:57:30.393Z,6.55
2022-10-04T20:59:57.848Z,5.80
2022-10-04T21:02:27.912Z,6.28
2022-10-04T21:04:57.398Z,6.40
2022-10-04T21:07:26.064Z,6.50
2022-10-04T21:09:54.574Z,6.80
2022-10-04T21:12:27.004Z,7.45
2022-10-04T21:15:18.175Z,5.85
2022-10-04T21:17:58.335Z,6.00
2022-10-04T21:20:51.305Z,6.97
2022-10-04T21:23:33.548Z,6.73
2022-10-04T21:26:20.807Z,7.28
2022-10-04T21:28:56.944Z,6.53
2022-10-04T21:31:23.489Z,8.07
2022-10-04T21:33:50.030Z,7.05
2022-10-04T21:36:16.542Z,7.60
2022-10-04T21:38:43.065Z,6.78
2022-10-04T21:41:09.482Z,7.10
2022-10-04T21:43:35.973Z,7.50
2022-10-04T21:46:02.550Z,7.10
2022-10-04T21:48:29.023Z,7.87
2022-10-04T21:50:55.552Z,8.05
2022-10-04T21:53:22.542Z,7.57
2022-10-04T21:55:49.208Z,8.23
2022-10-04T21:58:15.734Z,8.68
2022-10-04T22:00:42.297Z,7.37
2022-10-04T22:03:08.897Z,7.82
2022-10-04T22:05:35.422Z,8.25
2022-10-04T22:08:01.858Z,8.18
2022-10-04T22:10:28.516Z,8.63
2022-10-04T22:12:56.985Z,8.83
2022-10-04T22:15:25.540Z,7.82
2022-10-04T22:17:52.076Z,8.00
2022-10-04T22:20:18.928Z,8.20
2022-10-04T22:22:45.575Z,8.65
2022-10-04T22:25:17.396Z,8.17
2022-10-04T22:27:44.295Z,8.07
2022-10-04T22:30:31.252Z,8.77
2022-10-04T22:33:00.483Z,7.78
2022-10-04T22:35:29.913Z,7.72
2022-10-04T22:37:56.469Z,7.90
2022-10-04T22:40:24.879Z,7.97
2022-10-04T22:42:54.095Z,8.70
2022-10-04T22:45:24.279Z,7.22
2022-10-04T22:47:51.459Z,8.23
2022-10-04T22:50:36.635Z,7.90
2022-10-04T22:53:23.553Z,8.13
2022-10-04T22:55:51.682Z,8.75
2022-10-04T22:58:20.919Z,7.93
2022-10-04T23:00:47.910Z,9.52
2022-10-04T23:03:34.299Z,8.43
2022-10-04T23:06:02.601Z,8.60
2022-10-04T23:08:30.070Z,8.52
2022-10-04T23:10:58.931Z,8.40
2022-10-04T23:13:26.905Z,8.48
2022-10-04T23:15:58.089Z,9.10
2022-10-04T23:18:24.557Z,7.60
2022-10-04T23:20:59.542Z,7.97
2022-10-04T23:23:28.441Z,8.32
2022-10-04T23:25:55.215Z,8.60
2022-10-04T23:28:22.037Z,9.20
2022-10-04T23:31:00.358Z,8.57
2022-10-04T23:33:27.119Z,7.82
2022-10-04T23:35:54.658Z,8.68
2022-10-04T23:38:22.918Z,7.30
2022-10-04T23:40:49.343Z,8.10
2022-10-04T23:43:21.764Z,8.95
2022-10-04T23:45:48.510Z,9.25
2022-10-04T23:48:24.133Z,8.23
2022-10-04T23:50:51.811Z,8.93
2022-10-04T23:53:27.990Z,9.23
2022-10-04T23:55:56.532Z,8.02
2022-10-04T23:58:25.919Z,8.35
